首页
METAR-TAF:

METAR-TAF

机场 :

杜塞尔多夫机场

杜塞尔多夫, 德国

纬度: 51-18N, 经度: 006-46E, 海拔: 45米

当前天气观测

该预报发布于31分钟前的07:50 UTC
风速3节,风向东转东北,在东北之间变化
温度 0°C
湿度 93%
气压 1012 hPa
能见度10公里或以上
1500米以下无云,无积雨云

METAR: EDDL 170750Z 07003KT 040V100 CAVOK M00/M01 Q1012 NOSIG

时间: 09:21 (08:21 UTC)

预报

该预报发布于2小时和26分钟前的05:55 UTC
预报有效从17日的 06点(UTC)到 18日的 12点(UTC)
风速4节,风向东南
能见度10公里或以上
1500米以下无云,无积雨云
成为
从 17日的 10点(UTC)到 17日的 13点(UTC)
风速8节,风向
成为
从 17日的 20点(UTC)到 17日的 22点(UTC)
多云层高于1300英尺
短暂存在
从 17日的 22点(UTC)到 18日的 12点(UTC)
能見度: 3500
多云层高于700英尺
雨, 毛毛雨

TAF: EDDL 170555Z 1706/1812 14004KT CAVOK BECMG 1710/1713 36008KT BECMG 1720/1722 RA BKN013 TEMPO 1722/1812 3500 RADZ BKN007

超过4000个机场的气象观测和天气预报(METAR&TAF报告)。

可查询的气象台以黄色和红色小点在地图上表示。

将鼠标移到小点上方,可查看气象台名称。

然后点击查看天气观测和预报。

如需切换地图:点击带黑十字的绿色按钮放大地图;点击带横线的绿色按钮缩小地图;或者点击绿色箭头查看邻近地区的地图。


METAR-TAF: